Westlock, Canada
Current Conditions -  °F | °C
As of 11:00 PM on Thursday 27 Nov 2014 (Local Time) from CZVL Reporting Station
Light Snow Light Snow  
Wind Chill: -17°   Ceiling: 700
Heat Index:   Visibility: 0.75mi
Dew Point: -4°   Wind: 10mph
Humidity: 85%   Direction: 60°ENE
Pressure: 29.9"   Gusts: NA
Location:  54.15°N, 113.87°W
Report Text: CZVL 280600Z AUTO 06009KT 3/4SM R26/P6000FT/D -SN VV007 M18/M20 A2990 RMK SLP185
Loading
Personal Weather Stations






























Interactive Weather Map New forecast layout! Learn more

10-Day Weather Forecast

Advertisements
Track Severe Weather on mobile